Time,TemperatureF,DewpointF,PressureIn,WindDirection,WindDirectionDegrees,WindSpeedMPH,WindSpeedGustMPH,Humidity,HourlyPrecipIn,Conditions,Clouds,dailyrainin,SoftwareType,DateUTC
2013-01-25 00:03:00,21.7,10.3,30.33,ESE,118,9.1,11.5,61,0.00,,,0.00,WeatherDisplay:10.37,2013-01-25 06:03:00,
2013-01-25 00:08:00,21.8,10.8,30.33,ESE,113,8.4,12.0,62,0.00,,,0.00,WeatherDisplay:10.37,2013-01-25 06:08:00,
2013-01-25 00:13:00,21.8,10.4,30.33,SE,128,10.2,12.0,61,0.00,,,0.00,WeatherDisplay:10.37,2013-01-25 06:13:00,
2013-01-25 00:18:00,21.9,10.5,30.33,SE,132,8.3,11.5,61,0.00,,,0.00,WeatherDisplay:10.37,2013-01-25 06:18:00,
2013-01-25 00:24:00,21.9,10.5,30.32,SE,135,10.4,12.7,61,0.00,,,0.00,WeatherDisplay:10.37,2013-01-25 06:24:00,
2013-01-25 00:29:00,21.9,10.5,30.32,SE,126,9.7,11.5,61,0.00,,,0.00,WeatherDisplay:10.37,2013-01-25 06:29:00,
2013-01-25 00:34:00,21.9,10.5,30.31,SE,136,11.5,13.8,61,0.00,,,0.00,WeatherDisplay:10.37,2013-01-25 06:34:00,
2013-01-25 00:39:00,21.8,10.4,30.30,ESE,122,10.8,12.7,61,0.00,,,0.00,WeatherDisplay:10.37,2013-01-25 06:39:00,
2013-01-25 00:44:00,21.8,10.4,30.31,ESE,117,10.0,13.8,61,0.00,,,0.00,WeatherDisplay:10.37,2013-01-25 06:44:00,
2013-01-25 00:49:00,21.9,10.5,30.31,SE,142,8.7,11.5,61,0.00,,,0.00,WeatherDisplay:10.37,2013-01-25 06:49:00,
2013-01-25 00:54:00,21.9,10.5,30.30,SE,145,11.0,11.5,61,0.00,,,0.00,WeatherDisplay:10.37,2013-01-25 06:54:00,
2013-01-25 00:59:00,21.9,10.9,30.29,ESE,121,10.4,13.8,62,0.00,,,0.00,WeatherDisplay:10.37,2013-01-25 06:59:00,
2013-01-25 01:04:00,21.9,10.9,30.29,SE,125,10.1,11.5,62,0.00,,,0.00,WeatherDisplay:10.37,2013-01-25 07:04:00,
2013-01-25 01:09:00,21.9,10.9,30.28,SE,129,9.5,11.5,62,0.00,,,0.00,WeatherDisplay:10.37,2013-01-25 07:09:00,
2013-01-25 01:14:00,21.9,10.5,30.28,SE,134,8.5,11.5,61,0.00,,,0.00,WeatherDisplay:10.37,2013-01-25 07:14:00,
2013-01-25 01:19:00,21.9,10.9,30.28,SSE,149,8.1,11.5,62,0.00,,,0.00,WeatherDisplay:10.37,2013-01-25 07:19:00,
2013-01-25 01:24:00,21.9,10.5,30.28,SE,128,10.6,12.7,61,0.00,,,0.00,WeatherDisplay:10.37,2013-01-25 07:24:00,
2013-01-25 01:29:00,21.9,10.5,30.28,SE,128,8.8,10.4,61,0.00,,,0.00,WeatherDisplay:10.37,2013-01-25 07:29:00,
2013-01-25 01:34:00,21.9,10.5,30.28,SE,134,9.1,11.5,61,0.00,,,0.00,WeatherDisplay:10.37,2013-01-25 07:34:00,
2013-01-25 01:39:00,21.9,10.5,30.27,SE,128,10.6,11.5,61,0.00,,,0.00,WeatherDisplay:10.37,2013-01-25 07:39:00,
2013-01-25 01:44:00,21.9,10.5,30.27,SSE,149,9.2,11.5,61,0.00,,,0.00,WeatherDisplay:10.37,2013-01-25 07:44:00,
2013-01-25 01:49:00,21.9,10.5,30.27,SE,146,9.8,11.5,61,0.00,,,0.00,WeatherDisplay:10.37,2013-01-25 07:49:00,
2013-01-25 01:54:00,21.9,10.5,30.27,SE,128,8.7,11.5,61,0.00,,,0.00,WeatherDisplay:10.37,2013-01-25 07:54:00,
2013-01-25 01:59:00,21.9,10.5,30.27,SE,139,8.2,11.5,61,0.00,,,0.00,WeatherDisplay:10.37,2013-01-25 07:59:00,
2013-01-25 02:04:00,21.9,10.5,30.27,SSE,163,8.0,10.4,61,0.00,,,0.00,WeatherDisplay:10.37,2013-01-25 08:04:00,
2013-01-25 02:09:00,21.9,10.5,30.27,SE,134,6.7,10.4,61,0.00,,,0.00,WeatherDisplay:10.37,2013-01-25 08:09:00,
2013-01-25 02:14:00,21.9,10.5,30.26,SE,128,6.3,7.0,61,0.00,,,0.00,WeatherDisplay:10.37,2013-01-25 08:14:00,
2013-01-25 02:19:00,21.9,10.9,30.26,SE,132,7.9,9.2,62,0.00,,,0.00,WeatherDisplay:10.37,2013-01-25 08:19:00,
2013-01-25 02:24:00,21.9,10.9,30.26,SE,134,7.5,11.5,62,0.00,,,0.00,WeatherDisplay:10.37,2013-01-25 08:24:00,
2013-01-25 02:29:00,21.9,10.5,30.26,SE,142,8.2,10.4,61,0.00,,,0.00,WeatherDisplay:10.37,2013-01-25 08:29:00,
2013-01-25 02:34:00,21.9,10.9,30.26,ESE,120,7.1,9.2,62,0.00,,,0.00,WeatherDisplay:10.37,2013-01-25 08:34:00,
2013-01-25 02:39:00,21.9,10.9,30.26,ESE,118,5.4,7.0,62,0.00,,,0.00,WeatherDisplay:10.37,2013-01-25 08:39:00,
2013-01-25 02:44:00,21.9,10.9,30.25,ESE,123,6.2,7.0,62,0.00,,,0.00,WeatherDisplay:10.37,2013-01-25 08:44:00,
2013-01-25 02:49:00,21.9,10.5,30.25,SE,134,7.3,9.2,61,0.00,,,0.00,WeatherDisplay:10.37,2013-01-25 08:49:00,
2013-01-25 02:54:00,21.9,10.9,30.24,SE,129,7.4,10.4,62,0.00,,,0.00,WeatherDisplay:10.37,2013-01-25 08:54:00,
2013-01-25 02:59:00,21.9,10.9,30.24,SE,139,6.6,8.1,62,0.00,,,0.00,WeatherDisplay:10.37,2013-01-25 08:59:00,
2013-01-25 03:04:00,21.9,10.9,30.24,ESE,123,6.3,8.1,62,0.00,,,0.00,WeatherDisplay:10.37,2013-01-25 09:04:00,
2013-01-25 03:09:00,21.9,10.9,30.24,SSE,155,6.4,8.1,62,0.00,,,0.00,WeatherDisplay:10.37,2013-01-25 09:09:00,
2013-01-25 03:14:00,21.9,10.9,30.23,SE,146,7.3,9.2,62,0.00,,,0.00,WeatherDisplay:10.37,2013-01-25 09:14:00,
2013-01-25 03:19:00,21.9,10.9,30.22,SE,139,8.0,9.2,62,0.00,,,0.00,WeatherDisplay:10.37,2013-01-25 09:19:00,
2013-01-25 03:24:00,21.8,11.1,30.23,SE,145,10.6,13.0,63,0.00,,,0.00,WeatherDisplay:10.37,2013-01-25 09:24:00,
2013-01-25 03:29:00,21.6,12.3,30.22,SSE,160,11.4,13.8,67,0.00,,,0.00,WeatherDisplay:10.37,2013-01-25 09:29:00,
2013-01-25 03:34:00,21.3,13.0,30.22,SSE,149,9.7,11.5,70,0.00,,,0.00,WeatherDisplay:10.37,2013-01-25 09:34:00,
2013-01-25 03:39:00,21.0,13.1,30.21,South,169,9.3,11.5,71,0.00,,,0.00,WeatherDisplay:10.37,2013-01-25 09:39:00,
2013-01-25 03:44:00,20.7,14.0,30.21,SSE,165,9.3,11.5,75,0.00,,,0.00,WeatherDisplay:10.37,2013-01-25 09:44:00,
2013-01-25 03:50:00,20.5,14.4,30.22,South,170,7.2,9.2,77,0.00,,,0.00,WeatherDisplay:10.37,2013-01-25 09:50:00,
2013-01-25 03:55:00,20.3,14.5,30.20,SSE,149,6.8,8.1,78,0.00,,,0.00,WeatherDisplay:10.37,2013-01-25 09:55:00,
2013-01-25 04:00:00,20.2,14.7,30.19,SE,140,9.3,11.5,79,0.00,,,0.00,WeatherDisplay:10.37,2013-01-25 10:00:00,
2013-01-25 04:05:00,20.2,15.0,30.19,SE,136,10.0,12.0,80,0.00,,,0.00,WeatherDisplay:10.37,2013-01-25 10:05:00,
2013-01-25 04:10:00,20.1,15.2,30.19,SE,134,6.6,8.0,81,0.00,,,0.00,WeatherDisplay:10.37,2013-01-25 10:10:00,
2013-01-25 04:15:00,20.1,15.2,30.18,SSE,156,5.9,8.0,81,0.00,,,0.00,WeatherDisplay:10.37,2013-01-25 10:15:00,
2013-01-25 04:20:00,20.0,15.1,30.19,SSE,159,6.2,8.1,81,0.00,,,0.00,WeatherDisplay:10.37,2013-01-25 10:20:00,
2013-01-25 04:25:00,20.0,15.1,30.19,SSE,158,4.6,6.0,81,0.00,,,0.00,WeatherDisplay:10.37,2013-01-25 10:25:00,
2013-01-25 04:30:00,20.0,15.4,30.19,SSE,150,4.8,5.8,82,0.00,,,0.00,WeatherDisplay:10.37,2013-01-25 10:30:00,
2013-01-25 04:35:00,20.0,15.4,30.20,SSE,162,3.4,5.8,82,0.00,,,0.00,WeatherDisplay:10.37,2013-01-25 10:35:00,
2013-01-25 04:40:00,20.0,15.4,30.20,SSE,162,2.6,3.5,82,0.00,,,0.00,WeatherDisplay:10.37,2013-01-25 10:40:00,
2013-01-25 04:45:00,20.0,15.4,30.20,SE,145,3.8,4.6,82,0.00,,,0.00,WeatherDisplay:10.37,2013-01-25 10:45:00,
2013-01-25 04:50:00,19.8,15.7,30.19,SSE,149,4.4,4.6,84,0.00,,,0.00,WeatherDisplay:10.37,2013-01-25 10:50:00,
2013-01-25 04:55:00,19.7,15.9,30.20,SSE,163,4.7,5.8,85,0.00,,,0.00,WeatherDisplay:10.37,2013-01-25 10:55:00,
2013-01-25 05:00:00,19.6,15.8,30.20,SSE,158,1.0,1.1,85,0.00,,,0.00,WeatherDisplay:10.37,2013-01-25 11:00:00,
2013-01-25 05:05:00,19.6,15.8,30.20,SSE,162,1.0,1.0,85,0.00,,,0.00,WeatherDisplay:10.37,2013-01-25 11:05:00,
2013-01-25 05:10:00,19.5,16.0,30.20,South,176,1.0,2.0,86,0.00,,,0.00,WeatherDisplay:10.37,2013-01-25 11:10:00,
2013-01-25 05:15:00,19.5,16.0,30.20,SSE,148,1.5,2.3,86,0.00,,,0.00,WeatherDisplay:10.37,2013-01-25 11:15:00,
2013-01-25 05:20:00,19.5,16.0,30.19,SE,134,1.3,2.3,86,0.00,,,0.00,WeatherDisplay:10.37,2013-01-25 11:20:00,
2013-01-25 05:25:00,19.4,15.9,30.19,SE,127,2.1,3.5,86,0.00,,,0.00,WeatherDisplay:10.37,2013-01-25 11:25:00,
2013-01-25 05:30:00,19.4,16.2,30.19,SE,135,2.0,2.3,87,0.00,,,0.00,WeatherDisplay:10.37,2013-01-25 11:30:00,
2013-01-25 05:35:00,19.4,16.2,30.18,SE,139,2.1,3.5,87,0.00,,,0.00,WeatherDisplay:10.37,2013-01-25 11:35:00,
2013-01-25 05:40:00,19.4,16.2,30.18,SE,140,2.2,3.5,87,0.00,,,0.00,WeatherDisplay:10.37,2013-01-25 11:40:00,
2013-01-25 05:45:00,19.3,16.3,30.18,SE,139,2.3,3.5,88,0.00,,,0.00,WeatherDisplay:10.37,2013-01-25 11:45:00,
2013-01-25 05:50:00,19.3,16.3,30.17,SE,129,2.6,3.5,88,0.00,,,0.00,WeatherDisplay:10.37,2013-01-25 11:50:00,
2013-01-25 05:55:00,19.4,16.4,30.17,SE,132,2.6,3.5,88,0.00,,,0.00,WeatherDisplay:10.37,2013-01-25 11:55:00,
2013-01-25 06:00:00,19.4,16.4,30.17,SE,128,1.3,2.3,88,0.00,,,0.00,WeatherDisplay:10.37,2013-01-25 12:00:00,
2013-01-25 06:05:00,19.4,16.4,30.16,SE,138,3.0,3.5,88,0.00,,,0.00,WeatherDisplay:10.37,2013-01-25 12:05:00,
2013-01-25 06:10:00,19.4,16.4,30.16,SE,139,3.5,3.5,88,0.00,,,0.00,WeatherDisplay:10.37,2013-01-25 12:10:00,
2013-01-25 06:15:00,19.4,16.4,30.16,SE,134,3.5,4.6,88,0.00,,,0.00,WeatherDisplay:10.37,2013-01-25 12:15:00,
2013-01-25 06:20:00,19.4,16.7,30.15,SE,132,3.3,4.0,89,0.00,,,0.00,WeatherDisplay:10.37,2013-01-25 12:20:00,
2013-01-25 06:25:00,19.4,16.7,30.15,SE,138,3.8,4.6,89,0.00,,,0.00,WeatherDisplay:10.37,2013-01-25 12:25:00,
2013-01-25 06:30:00,19.4,16.7,30.15,SE,126,2.7,3.5,89,0.00,,,0.00,WeatherDisplay:10.37,2013-01-25 12:30:00,
2013-01-25 06:35:00,19.4,16.4,30.16,SE,142,1.8,2.3,88,0.00,,,0.00,WeatherDisplay:10.37,2013-01-25 12:35:00,
2013-01-25 06:41:00,19.4,16.4,30.16,SSE,160,1.8,2.3,88,0.00,,,0.00,WeatherDisplay:10.37,2013-01-25 12:41:00,
2013-01-25 06:46:00,19.4,16.4,30.16,SE,138,1.3,2.3,88,0.00,,,0.00,WeatherDisplay:10.37,2013-01-25 12:46:00,
2013-01-25 06:51:00,19.5,16.5,30.16,SE,145,2.0,3.5,88,0.00,,,0.00,WeatherDisplay:10.37,2013-01-25 12:51:00,
2013-01-25 06:56:00,19.5,16.5,30.16,SSE,155,0.9,2.3,88,0.00,,,0.00,WeatherDisplay:10.37,2013-01-25 12:56:00,
2013-01-25 07:01:00,19.5,16.5,30.16,SSE,155,0.0,1.1,88,0.00,CLR,,0.00,WeatherDisplay:10.37,2013-01-25 13:01:00,
2013-01-25 07:06:00,19.5,16.5,30.16,SSE,155,0.3,1.1,88,0.00,CLR,,0.00,WeatherDisplay:10.37,2013-01-25 13:06:00,
2013-01-25 07:11:00,19.6,16.6,30.16,SSE,155,0.0,0.0,88,0.00,CLR,,0.00,WeatherDisplay:10.37,2013-01-25 13:11:00,
2013-01-25 07:16:00,19.6,16.6,30.16,SSE,159,0.6,1.1,88,0.00,CLR,,0.00,WeatherDisplay:10.37,2013-01-25 13:16:00,
2013-01-25 07:21:00,19.6,16.6,30.15,SSE,159,1.0,1.1,88,0.00,CLR,,0.00,WeatherDisplay:10.37,2013-01-25 13:21:00,
2013-01-25 07:26:00,19.7,16.7,30.15,SSE,159,1.0,1.1,88,0.00,CLR,,0.00,WeatherDisplay:10.37,2013-01-25 13:26:00,
2013-01-25 07:31:00,19.7,16.7,30.15,SSE,165,1.8,2.3,88,0.00,CLR,,0.00,WeatherDisplay:10.37,2013-01-25 13:31:00,
2013-01-25 07:36:00,19.9,16.9,30.15,South,183,2.4,3.5,88,0.00,CLR,,0.00,WeatherDisplay:10.37,2013-01-25 13:36:00,
2013-01-25 07:41:00,20.1,16.6,30.15,South,184,3.0,3.5,86,0.00,CLR,,0.00,WeatherDisplay:10.37,2013-01-25 13:41:00,
2013-01-25 07:46:00,20.3,16.8,30.14,South,184,3.3,4.6,86,0.00,CLR,,0.00,WeatherDisplay:10.37,2013-01-25 13:46:00,
2013-01-25 07:51:00,20.5,16.7,30.14,SSW,197,4.7,5.8,85,0.00,CLR,,0.00,WeatherDisplay:10.37,2013-01-25 13:51:00,
2013-01-25 07:56:00,20.7,16.9,30.14,SSW,198,4.8,5.8,85,0.00,CLR,,0.00,WeatherDisplay:10.37,2013-01-25 13:56:00,
2013-01-25 08:01:00,20.9,16.8,30.14,SSW,203,5.0,6.0,84,0.00,CLR,,0.00,WeatherDisplay:10.37,2013-01-25 14:01:00,
2013-01-25 08:06:00,21.1,17.0,30.13,SW,232,5.5,6.9,84,0.00,CLR,,0.00,WeatherDisplay:10.37,2013-01-25 14:06:00,
2013-01-25 08:11:00,21.3,16.9,30.13,SSW,208,4.4,5.8,83,0.00,CLR,,0.00,WeatherDisplay:10.37,2013-01-25 14:11:00,
2013-01-25 08:16:00,21.6,17.0,30.14,SW,220,6.5,8.1,82,0.00,CLR,,0.00,WeatherDisplay:10.37,2013-01-25 14:16:00,
2013-01-25 08:21:00,21.8,17.2,30.13,WSW,241,6.1,6.1,82,0.00,CLR,,0.00,WeatherDisplay:10.37,2013-01-25 14:21:00,
2013-01-25 08:26:00,22.0,17.1,30.14,SW,232,5.9,9.2,81,0.00,CLR,,0.00,WeatherDisplay:10.37,2013-01-25 14:26:00,
2013-01-25 08:32:00,22.2,17.0,30.13,WSW,255,7.2,9.2,80,0.00,CLR,,0.00,WeatherDisplay:10.37,2013-01-25 14:32:00,
2013-01-25 08:37:00,22.4,17.2,30.13,WSW,243,6.1,8.1,80,0.00,CLR,,0.00,WeatherDisplay:10.37,2013-01-25 14:37:00,
2013-01-25 08:42:00,22.6,17.4,30.13,SW,232,7.2,9.2,80,0.00,CLR,,0.00,WeatherDisplay:10.37,2013-01-25 14:42:00,
2013-01-25 08:47:00,22.8,17.3,30.13,SW,235,8.0,10.4,79,0.00,CLR,,0.00,WeatherDisplay:10.37,2013-01-25 14:47:00,
2013-01-25 08:52:00,23.0,17.5,30.13,West,259,7.3,8.1,79,0.00,CLR,,0.00,WeatherDisplay:10.37,2013-01-25 14:52:00,
2013-01-25 08:57:00,23.2,17.4,30.13,WSW,252,9.2,11.5,78,0.00,CLR,,0.00,WeatherDisplay:10.37,2013-01-25 14:57:00,
2013-01-25 09:02:00,23.4,17.6,30.13,West,273,7.5,9.2,78,0.00,CLR,,0.00,WeatherDisplay:10.37,2013-01-25 15:02:00,
2013-01-25 09:07:00,23.4,17.3,30.13,WSW,252,6.4,9.2,77,0.00,CLR,,0.00,WeatherDisplay:10.37,2013-01-25 15:07:00,
2013-01-25 09:12:00,23.6,17.7,30.14,West,267,8.0,11.5,78,0.00,CLR,,0.00,WeatherDisplay:10.37,2013-01-25 15:12:00,
2013-01-25 09:17:00,23.8,17.6,30.13,West,266,9.1,12.0,77,0.00,CLR,,0.00,WeatherDisplay:10.37,2013-01-25 15:17:00,
2013-01-25 09:22:00,23.9,18.0,30.14,West,266,10.7,12.7,78,0.00,CLR,,0.00,WeatherDisplay:10.37,2013-01-25 15:22:00,
2013-01-25 09:27:00,24.0,18.1,30.13,WNW,283,9.4,11.5,78,0.00,CLR,,0.00,WeatherDisplay:10.37,2013-01-25 15:27:00,
2013-01-25 09:32:00,24.3,18.7,30.13,West,270,8.7,11.5,79,0.00,CLR,,0.00,WeatherDisplay:10.37,2013-01-25 15:32:00,
2013-01-25 09:37:00,24.4,18.2,30.12,WNW,290,10.0,12.0,77,0.00,CLR,,0.00,WeatherDisplay:10.37,2013-01-25 15:37:00,
2013-01-25 09:42:00,24.6,18.7,30.12,West,274,9.1,11.5,78,0.00,CLR,,0.00,WeatherDisplay:10.37,2013-01-25 15:42:00,
2013-01-25 09:47:00,24.8,18.9,30.12,West,271,8.1,10.4,78,0.00,CLR,,0.00,WeatherDisplay:10.37,2013-01-25 15:47:00,
2013-01-25 09:52:00,25.0,18.8,30.12,West,280,7.7,10.4,77,0.00,CLR,,0.00,WeatherDisplay:10.37,2013-01-25 15:52:00,
2013-01-25 09:57:00,25.1,18.9,30.12,WNW,285,10.2,11.5,77,0.00,CLR,,0.00,WeatherDisplay:10.37,2013-01-25 15:57:00,
2013-01-25 10:02:00,25.1,18.6,30.12,WNW,283,10.1,11.5,76,0.00,CLR,,0.00,WeatherDisplay:10.37,2013-01-25 16:02:00,
2013-01-25 10:07:00,25.3,19.1,30.12,West,272,8.7,10.4,77,0.00,CLR,,0.00,WeatherDisplay:10.37,2013-01-25 16:07:00,
2013-01-25 10:12:00,25.4,18.9,30.12,West,277,9.9,12.7,76,0.00,CLR,,0.00,WeatherDisplay:10.37,2013-01-25 16:12:00,
2013-01-25 10:17:00,25.4,18.6,30.12,West,269,8.2,10.4,75,0.00,CLR,,0.00,WeatherDisplay:10.37,2013-01-25 16:17:00,
2013-01-25 10:22:00,25.5,18.7,30.12,West,267,9.1,10.4,75,0.00,CLR,,0.00,WeatherDisplay:10.37,2013-01-25 16:22:00,
2013-01-25 10:27:00,26.0,19.2,30.11,WSW,238,9.9,11.5,75,0.00,CLR,,0.00,WeatherDisplay:10.37,2013-01-25 16:27:00,
2013-01-25 10:32:00,26.1,18.6,30.11,WSW,257,9.0,11.5,73,0.00,CLR,,0.00,WeatherDisplay:10.37,2013-01-25 16:32:00,
2013-01-25 10:37:00,26.2,19.0,30.11,West,276,9.5,11.5,74,0.00,CLR,,0.00,WeatherDisplay:10.37,2013-01-25 16:37:00,
2013-01-25 10:42:00,26.4,18.6,30.11,West,259,10.9,13.8,72,0.00,CLR,,0.00,WeatherDisplay:10.37,2013-01-25 16:42:00,
2013-01-25 10:47:00,26.8,19.6,30.11,West,274,10.4,13.0,74,0.00,CLR,,0.00,WeatherDisplay:10.37,2013-01-25 16:47:00,
2013-01-25 10:52:00,27.0,19.8,30.10,West,269,10.0,13.8,74,0.00,CLR,,0.00,WeatherDisplay:10.37,2013-01-25 16:52:00,
2013-01-25 10:57:00,27.4,19.6,30.10,West,273,10.2,15.0,72,0.00,CLR,,0.00,WeatherDisplay:10.37,2013-01-25 16:57:00,
2013-01-25 11:03:00,27.6,19.8,30.10,WNW,285,9.3,12.7,72,0.00,CLR,,0.00,WeatherDisplay:10.37,2013-01-25 17:03:00,
2013-01-25 11:08:00,27.6,19.4,30.10,West,276,10.5,13.8,71,0.00,CLR,,0.00,WeatherDisplay:10.37,2013-01-25 17:08:00,
2013-01-25 11:13:00,28.2,21.0,30.10,West,278,10.1,11.5,74,0.00,CLR,,0.00,WeatherDisplay:10.37,2013-01-25 17:13:00,
2013-01-25 11:18:00,28.2,20.3,30.10,WNW,302,9.8,13.8,72,0.00,CLR,,0.00,WeatherDisplay:10.37,2013-01-25 17:18:00,
2013-01-25 11:23:00,28.4,19.9,30.09,WNW,293,9.9,11.5,70,0.00,CLR,,0.00,WeatherDisplay:10.37,2013-01-25 17:23:00,
2013-01-25 11:28:00,28.4,19.9,30.09,WSW,257,10.8,12.7,70,0.00,CLR,,0.00,WeatherDisplay:10.37,2013-01-25 17:28:00,
2013-01-25 11:33:00,28.6,20.4,30.08,WNW,302,8.1,9.2,71,0.00,CLR,,0.00,WeatherDisplay:10.37,2013-01-25 17:33:00,
2013-01-25 11:38:00,29.1,20.5,30.08,WNW,292,9.0,12.7,70,0.00,CLR,,0.00,WeatherDisplay:10.37,2013-01-25 17:38:00,
2013-01-25 11:43:00,29.6,20.3,30.08,WNW,295,9.4,14.0,68,0.00,CLR,,0.00,WeatherDisplay:10.37,2013-01-25 17:43:00,
2013-01-25 11:48:00,29.8,19.8,30.07,West,269,10.2,12.7,66,0.00,CLR,,0.00,WeatherDisplay:10.37,2013-01-25 17:48:00,
2013-01-25 11:53:00,30.0,20.0,30.07,WNW,285,9.9,12.7,66,0.00,CLR,,0.00,WeatherDisplay:10.37,2013-01-25 17:53:00,
2013-01-25 11:58:00,30.4,20.4,30.07,West,280,9.3,11.5,66,0.00,CLR,,0.00,WeatherDisplay:10.37,2013-01-25 17:58:00,
2013-01-25 12:04:00,30.5,19.4,30.06,WNW,297,8.6,11.5,63,0.00,CLR,,0.00,WeatherDisplay:10.37,2013-01-25 18:04:00,
2013-01-25 12:09:00,30.6,19.5,30.06,WNW,285,10.8,12.7,63,0.00,CLR,,0.00,WeatherDisplay:10.37,2013-01-25 18:09:00,
2013-01-25 12:14:00,30.7,19.6,30.05,WNW,297,11.1,13.8,63,0.00,CLR,,0.00,WeatherDisplay:10.37,2013-01-25 18:14:00,
2013-01-25 12:19:00,31.1,20.0,30.05,West,274,8.1,11.5,63,0.00,CLR,,0.00,WeatherDisplay:10.37,2013-01-25 18:19:00,
2013-01-25 12:24:00,31.4,19.9,30.05,WNW,295,11.1,12.7,62,0.00,CLR,,0.00,WeatherDisplay:10.37,2013-01-25 18:24:00,
2013-01-25 12:29:00,31.5,19.6,30.04,WNW,284,8.9,11.5,61,0.00,CLR,,0.00,WeatherDisplay:10.37,2013-01-25 18:29:00,
2013-01-25 12:34:00,31.9,20.3,30.04,West,263,9.9,12.7,62,0.00,CLR,,0.00,WeatherDisplay:10.37,2013-01-25 18:34:00,
2013-01-25 12:39:00,32.3,20.0,30.04,West,262,10.6,14.0,60,0.00,CLR,,0.00,WeatherDisplay:10.37,2013-01-25 18:39:00,
2013-01-25 12:44:00,32.1,19.0,30.03,West,281,11.9,15.0,58,0.00,CLR,,0.00,WeatherDisplay:10.37,2013-01-25 18:44:00,
2013-01-25 12:49:00,32.2,19.1,30.03,West,267,15.2,19.6,58,0.00,CLR,,0.00,WeatherDisplay:10.37,2013-01-25 18:49:00,
2013-01-25 12:54:00,32.3,20.0,30.03,West,270,13.8,16.1,60,0.00,CLR,,0.00,WeatherDisplay:10.37,2013-01-25 18:54:00,
2013-01-25 12:59:00,32.7,19.1,30.03,West,280,12.6,16.1,57,0.00,CLR,,0.00,WeatherDisplay:10.37,2013-01-25 18:59:00,
2013-01-25 13:04:00,32.7,19.5,30.03,West,264,15.6,19.6,58,0.00,CLR,,0.00,WeatherDisplay:10.37,2013-01-25 19:04:00,
2013-01-25 13:09:00,33.4,19.8,30.03,WNW,294,14.4,17.3,57,0.00,CLR,,0.00,WeatherDisplay:10.37,2013-01-25 19:09:00,
2013-01-25 13:14:00,33.4,18.9,30.03,WNW,285,12.2,19.6,55,0.00,CLR,,0.00,WeatherDisplay:10.37,2013-01-25 19:14:00,
2013-01-25 13:19:00,33.8,19.7,30.03,West,269,13.2,17.0,56,0.00,CLR,,0.00,WeatherDisplay:10.37,2013-01-25 19:19:00,
2013-01-25 13:24:00,34.1,20.0,30.03,WNW,284,15.6,19.6,56,0.00,CLR,,0.00,WeatherDisplay:10.37,2013-01-25 19:24:00,
2013-01-25 13:29:00,34.1,20.0,30.03,West,259,14.4,18.4,56,0.00,CLR,,0.00,WeatherDisplay:10.37,2013-01-25 19:29:00,
2013-01-25 13:34:00,34.4,19.9,30.03,WNW,284,13.3,17.3,55,0.00,CLR,,0.00,WeatherDisplay:10.37,2013-01-25 19:34:00,
2013-01-25 13:39:00,34.8,19.4,30.02,West,278,13.9,16.1,53,0.00,CLR,,0.00,WeatherDisplay:10.37,2013-01-25 19:39:00,
2013-01-25 13:45:00,35.1,19.7,30.02,West,270,15.0,17.3,53,0.00,CLR,,0.00,WeatherDisplay:10.37,2013-01-25 19:45:00,
2013-01-25 13:50:00,35.5,19.6,30.03,West,276,13.4,15.0,52,0.00,CLR,,0.00,WeatherDisplay:10.37,2013-01-25 19:50:00,
2013-01-25 13:55:00,35.8,19.9,30.02,WNW,285,14.3,19.0,52,0.00,CLR,,0.00,WeatherDisplay:10.37,2013-01-25 19:55:00,
2013-01-25 14:00:00,35.7,19.8,30.02,WNW,283,14.0,17.3,52,0.00,CLR,,0.00,WeatherDisplay:10.37,2013-01-25 20:00:00,
2013-01-25 14:05:00,35.8,19.9,30.02,WNW,288,13.4,16.1,52,0.00,CLR,,0.00,WeatherDisplay:10.37,2013-01-25 20:05:00,
2013-01-25 14:10:00,35.9,19.5,30.02,West,270,13.1,19.6,51,0.00,CLR,,0.00,WeatherDisplay:10.37,2013-01-25 20:10:00,
2013-01-25 14:15:00,36.1,20.6,30.02,WNW,286,13.9,17.3,53,0.00,CLR,,0.00,WeatherDisplay:10.37,2013-01-25 20:15:00,
2013-01-25 14:20:00,36.3,19.9,30.02,WNW,295,15.5,20.7,51,0.00,CLR,,0.00,WeatherDisplay:10.37,2013-01-25 20:20:00,
2013-01-25 14:25:00,36.6,20.6,30.02,WNW,292,13.3,20.7,52,0.00,CLR,,0.00,WeatherDisplay:10.37,2013-01-25 20:25:00,
2013-01-25 14:30:00,36.5,20.1,30.02,WNW,283,15.3,19.6,51,0.00,CLR,,0.00,WeatherDisplay:10.37,2013-01-25 20:30:00,
2013-01-25 14:35:00,36.8,20.3,30.02,WNW,293,15.0,18.0,51,0.00,CLR,,0.00,WeatherDisplay:10.37,2013-01-25 20:35:00,
2013-01-25 14:40:00,36.8,20.3,30.02,WNW,294,15.0,22.0,51,0.00,CLR,,0.00,WeatherDisplay:10.37,2013-01-25 20:40:00,
2013-01-25 14:45:00,36.7,20.7,30.02,WNW,286,15.0,21.0,52,0.00,CLR,,0.00,WeatherDisplay:10.37,2013-01-25 20:45:00,
2013-01-25 14:50:00,36.7,20.3,30.03,West,275,14.6,19.0,51,0.00,CLR,,0.00,WeatherDisplay:10.37,2013-01-25 20:50:00,
2013-01-25 14:55:00,36.7,20.7,30.02,WNW,283,16.0,21.0,52,0.00,CLR,,0.00,WeatherDisplay:10.37,2013-01-25 20:55:00,
2013-01-25 15:00:00,37.1,21.5,30.03,WNW,300,12.7,17.3,53,0.00,CLR,,0.00,WeatherDisplay:10.37,2013-01-25 21:00:00,
2013-01-25 15:05:00,36.9,20.4,30.02,WNW,295,15.2,19.6,51,0.00,CLR,,0.00,WeatherDisplay:10.37,2013-01-25 21:05:00,
2013-01-25 15:10:00,37.1,21.1,30.02,WNW,302,13.5,16.1,52,0.00,CLR,,0.00,WeatherDisplay:10.37,2013-01-25 21:10:00,
2013-01-25 15:15:00,37.1,21.5,30.03,WNW,295,13.3,15.0,53,0.00,CLR,,0.00,WeatherDisplay:10.37,2013-01-25 21:15:00,
2013-01-25 15:20:00,36.8,20.8,30.03,WNW,300,18.2,21.9,52,0.00,CLR,,0.00,WeatherDisplay:10.37,2013-01-25 21:20:00,
2013-01-25 15:25:00,36.4,20.9,30.02,WNW,302,18.0,20.7,53,0.00,CLR,,0.00,WeatherDisplay:10.37,2013-01-25 21:25:00,
2013-01-25 15:30:00,36.2,20.7,30.03,WNW,297,16.7,21.0,53,0.00,CLR,,0.00,WeatherDisplay:10.37,2013-01-25 21:30:00,
2013-01-25 15:35:00,36.0,20.5,30.03,WNW,291,17.1,20.7,53,0.00,CLR,,0.00,WeatherDisplay:10.37,2013-01-25 21:35:00,
2013-01-25 15:40:00,35.9,20.9,30.03,NW,304,14.4,19.6,54,0.00,CLR,,0.00,WeatherDisplay:10.37,2013-01-25 21:40:00,
2013-01-25 15:45:00,35.9,20.9,30.03,WNW,297,14.2,18.4,54,0.00,CLR,,0.00,WeatherDisplay:10.37,2013-01-25 21:45:00,
2013-01-25 15:50:00,35.8,21.2,30.03,NW,312,11.1,12.7,55,0.00,CLR,,0.00,WeatherDisplay:10.37,2013-01-25 21:50:00,
2013-01-25 15:55:00,35.7,21.5,30.03,WNW,298,9.3,12.7,56,0.00,CLR,,0.00,WeatherDisplay:10.37,2013-01-25 21:55:00,
2013-01-25 16:00:00,35.6,21.0,30.04,NW,314,14.0,17.0,55,0.00,CLR,,0.00,WeatherDisplay:10.37,2013-01-25 22:00:00,
2013-01-25 16:05:00,35.2,20.6,30.04,NW,315,12.2,13.8,55,0.00,CLR,,0.00,WeatherDisplay:10.37,2013-01-25 22:05:00,
2013-01-25 16:11:00,35.0,21.3,30.04,WNW,302,11.4,12.7,57,0.00,CLR,,0.00,WeatherDisplay:10.37,2013-01-25 22:11:00,
2013-01-25 16:16:00,34.6,21.3,30.05,WNW,299,12.6,16.1,58,0.00,CLR,,0.00,WeatherDisplay:10.37,2013-01-25 22:16:00,
2013-01-25 16:21:00,34.3,21.8,30.05,NW,312,12.8,16.1,60,0.00,CLR,,0.00,WeatherDisplay:10.37,2013-01-25 22:21:00,
2013-01-25 16:26:00,34.1,22.0,30.05,NW,304,10.5,15.0,61,0.00,CLR,,0.00,WeatherDisplay:10.37,2013-01-25 22:26:00,
2013-01-25 16:31:00,33.8,22.5,30.06,NW,311,12.1,12.1,63,0.00,CLR,,0.00,WeatherDisplay:10.37,2013-01-25 22:31:00,
2013-01-25 16:36:00,33.5,23.0,30.06,NNW,334,9.9,15.0,65,0.00,CLR,,0.00,WeatherDisplay:10.37,2013-01-25 22:36:00,
2013-01-25 16:41:00,33.2,22.7,30.06,NW,312,12.9,15.0,65,0.00,CLR,,0.00,WeatherDisplay:10.37,2013-01-25 22:41:00,
2013-01-25 16:46:00,32.8,22.7,30.06,NW,316,10.5,16.1,66,0.00,CLR,,0.00,WeatherDisplay:10.37,2013-01-25 22:46:00,
2013-01-25 16:51:00,32.4,22.7,30.06,NW,313,12.3,15.0,67,0.00,CLR,,0.00,WeatherDisplay:10.37,2013-01-25 22:51:00,
2013-01-25 16:56:00,32.2,22.5,30.06,NW,311,12.4,18.4,67,0.00,CLR,,0.00,WeatherDisplay:10.37,2013-01-25 22:56:00,
2013-01-25 17:01:00,31.8,22.4,30.07,NNW,329,11.9,15.0,68,0.00,CLR,,0.00,WeatherDisplay:10.37,2013-01-25 23:01:00,
2013-01-25 17:06:00,31.4,22.1,30.07,NW,319,10.7,13.0,68,0.00,CLR,,0.00,WeatherDisplay:10.37,2013-01-25 23:06:00,
2013-01-25 17:11:00,31.0,21.7,30.07,NW,316,10.8,12.7,68,0.00,CLR,,0.00,WeatherDisplay:10.37,2013-01-25 23:11:00,
2013-01-25 17:16:00,30.9,21.6,30.07,NW,309,10.2,12.7,68,0.00,CLR,,0.00,WeatherDisplay:10.37,2013-01-25 23:16:00,
2013-01-25 17:21:00,30.5,21.5,30.07,NW,305,8.4,10.4,69,0.00,CLR,,0.00,WeatherDisplay:10.37,2013-01-25 23:21:00,
2013-01-25 17:26:00,30.2,21.2,30.07,NW,311,8.4,11.5,69,0.00,CLR,,0.00,WeatherDisplay:10.37,2013-01-25 23:26:00,
2013-01-25 17:31:00,30.1,21.2,30.08,NNW,347,9.9,13.8,69,0.00,CLR,,0.00,WeatherDisplay:10.37,2013-01-25 23:31:00,
2013-01-25 17:36:00,29.9,21.3,30.08,NW,308,8.0,11.5,70,0.00,CLR,,0.00,WeatherDisplay:10.37,2013-01-25 23:36:00,
2013-01-25 17:41:00,29.8,21.2,30.08,NW,305,8.8,11.5,70,0.00,CLR,,0.00,WeatherDisplay:10.37,2013-01-25 23:41:00,
2013-01-25 17:46:00,29.6,21.3,30.08,WNW,297,7.9,10.4,71,0.00,CLR,,0.00,WeatherDisplay:10.37,2013-01-25 23:46:00,
2013-01-25 17:51:00,29.4,21.2,30.08,NW,309,6.1,11.5,71,0.00,CLR,,0.00,WeatherDisplay:10.37,2013-01-25 23:51:00,
2013-01-25 17:56:00,29.2,21.3,30.08,NW,304,7.7,13.8,72,0.00,CLR,,0.00,WeatherDisplay:10.37,2013-01-25 23:56:00,
2013-01-25 18:01:00,29.0,21.1,30.09,NW,320,7.0,8.1,72,0.00,CLR,,0.00,WeatherDisplay:10.37,2013-01-26 00:01:00,
2013-01-25 18:06:00,28.8,21.2,30.09,NW,311,5.4,6.9,73,0.00,CLR,,0.00,WeatherDisplay:10.37,2013-01-26 00:06:00,
2013-01-25 18:11:00,28.6,21.0,30.09,NW,314,7.8,9.2,73,0.00,CLR,,0.00,WeatherDisplay:10.37,2013-01-26 00:11:00,
2013-01-25 18:16:00,28.6,21.0,30.10,NW,306,6.9,9.2,73,0.00,CLR,,0.00,WeatherDisplay:10.37,2013-01-26 00:16:00,
2013-01-25 18:22:00,28.6,21.0,30.10,NW,316,6.9,9.0,73,0.00,CLR,,0.00,WeatherDisplay:10.37,2013-01-26 00:22:00,
2013-01-25 18:27:00,28.4,21.2,30.10,NW,309,8.3,9.2,74,0.00,CLR,,0.00,WeatherDisplay:10.37,2013-01-26 00:27:00,
2013-01-25 18:32:00,28.5,20.9,30.10,NNW,329,7.1,9.2,73,0.00,CLR,,0.00,WeatherDisplay:10.37,2013-01-26 00:32:00,
2013-01-25 18:37:00,28.5,20.9,30.10,NW,314,8.4,10.4,73,0.00,CLR,,0.00,WeatherDisplay:10.37,2013-01-26 00:37:00,
2013-01-25 18:42:00,28.3,21.1,30.10,NW,308,8.3,10.4,74,0.00,CLR,,0.00,WeatherDisplay:10.37,2013-01-26 00:42:00,
2013-01-25 18:47:00,28.4,20.8,30.11,NW,312,8.6,11.0,73,0.00,CLR,,0.00,WeatherDisplay:10.37,2013-01-26 00:47:00,
2013-01-25 18:52:00,28.5,20.6,30.11,NNW,339,8.3,12.7,72,0.00,CLR,,0.00,WeatherDisplay:10.37,2013-01-26 00:52:00,
2013-01-25 18:57:00,28.3,20.4,30.11,NNW,335,8.8,11.0,72,0.00,CLR,,0.00,WeatherDisplay:10.37,2013-01-26 00:57:00,
2013-01-25 19:02:00,28.3,20.4,30.12,NW,321,9.0,12.0,72,0.00,CLR,,0.00,WeatherDisplay:10.37,2013-01-26 01:02:00,
2013-01-25 19:07:00,28.2,20.0,30.12,North,1,9.2,15.0,71,0.00,CLR,,0.00,WeatherDisplay:10.37,2013-01-26 01:07:00,
2013-01-25 19:12:00,28.0,19.5,30.12,NE,36,6.9,10.4,70,0.00,CLR,,0.00,WeatherDisplay:10.37,2013-01-26 01:12:00,
2013-01-25 19:17:00,27.9,19.0,30.12,NW,316,8.8,12.7,69,0.00,CLR,,0.00,WeatherDisplay:10.37,2013-01-26 01:17:00,
2013-01-25 19:22:00,27.5,18.7,30.12,NW,320,8.8,11.5,69,0.00,CLR,,0.00,WeatherDisplay:10.37,2013-01-26 01:22:00,
2013-01-25 19:27:00,27.4,17.5,30.13,North,352,13.6,16.1,66,0.00,CLR,,0.00,WeatherDisplay:10.37,2013-01-26 01:27:00,
2013-01-25 19:32:00,27.0,16.1,30.13,NNE,28,11.1,17.0,63,0.00,CLR,,0.00,WeatherDisplay:10.37,2013-01-26 01:32:00,
2013-01-25 19:37:00,26.3,14.7,30.13,NE,49,9.5,14.0,61,0.00,CLR,,0.00,WeatherDisplay:10.37,2013-01-26 01:37:00,
2013-01-25 19:42:00,25.8,13.4,30.13,NNW,340,11.4,17.3,59,0.00,CLR,,0.00,WeatherDisplay:10.37,2013-01-26 01:42:00,
2013-01-25 19:47:00,25.3,12.6,30.14,NNW,335,14.3,18.4,58,0.00,CLR,,0.00,WeatherDisplay:10.37,2013-01-26 01:47:00,
2013-01-25 19:52:00,24.8,12.5,30.14,NNW,329,10.1,13.8,59,0.00,CLR,,0.00,WeatherDisplay:10.37,2013-01-26 01:52:00,
2013-01-25 19:58:00,24.4,11.3,30.14,NNW,329,12.1,17.3,57,0.00,CLR,,0.00,WeatherDisplay:10.37,2013-01-26 01:58:00,
2013-01-25 20:03:00,24.2,11.1,30.14,North,3,9.6,13.8,57,0.00,CLR,,0.00,WeatherDisplay:10.37,2013-01-26 02:03:00,
2013-01-25 20:08:00,24.0,11.0,30.14,NNW,332,8.0,11.5,57,0.00,CLR,,0.00,WeatherDisplay:10.37,2013-01-26 02:08:00,
2013-01-25 20:13:00,23.8,10.8,30.14,NNW,347,8.3,12.0,57,0.00,CLR,,0.00,WeatherDisplay:10.37,2013-01-26 02:13:00,
2013-01-25 20:18:00,23.7,10.7,30.15,North,1,10.5,13.8,57,0.00,CLR,,0.00,WeatherDisplay:10.37,2013-01-26 02:18:00,
2013-01-25 20:23:00,23.6,10.2,30.15,NNW,345,11.8,15.0,56,0.00,CLR,,0.00,WeatherDisplay:10.37,2013-01-26 02:23:00,
2013-01-25 20:28:00,23.2,10.2,30.14,North,8,9.1,10.4,57,0.00,CLR,,0.00,WeatherDisplay:10.37,2013-01-26 02:28:00,
2013-01-25 20:33:00,22.9,9.9,30.15,ENE,60,10.2,13.0,57,0.00,CLR,,0.00,WeatherDisplay:10.37,2013-01-26 02:33:00,
2013-01-25 20:38:00,22.8,9.4,30.15,North,6,8.1,12.7,56,0.00,CLR,,0.00,WeatherDisplay:10.37,2013-01-26 02:38:00,
2013-01-25 20:43:00,22.7,9.3,30.16,NNW,348,10.3,12.7,56,0.00,CLR,,0.00,WeatherDisplay:10.37,2013-01-26 02:43:00,
2013-01-25 20:48:00,22.4,9.4,30.16,NE,53,7.8,10.4,57,0.00,CLR,,0.00,WeatherDisplay:10.37,2013-01-26 02:48:00,
2013-01-25 20:53:00,22.1,9.2,30.17,North,356,8.2,11.5,57,0.00,CLR,,0.00,WeatherDisplay:10.37,2013-01-26 02:53:00,
2013-01-25 20:58:00,22.0,9.1,30.17,NE,38,10.2,15.0,57,0.00,CLR,,0.00,WeatherDisplay:10.37,2013-01-26 02:58:00,
2013-01-25 21:03:00,21.7,9.2,30.17,WNW,302,6.9,10.4,58,0.00,CLR,,0.00,WeatherDisplay:10.37,2013-01-26 03:03:00,
2013-01-25 21:08:00,21.3,9.2,30.17,NW,316,8.6,13.8,59,0.00,CLR,,0.00,WeatherDisplay:10.37,2013-01-26 03:08:00,
2013-01-25 21:13:00,21.2,9.1,30.18,NW,316,8.1,11.5,59,0.00,CLR,,0.00,WeatherDisplay:10.37,2013-01-26 03:13:00,
2013-01-25 21:18:00,21.0,9.3,30.18,NW,319,5.4,8.0,60,0.00,CLR,,0.00,WeatherDisplay:10.37,2013-01-26 03:18:00,
2013-01-25 21:23:00,20.6,9.3,30.18,WNW,283,5.8,11.5,61,0.00,CLR,,0.00,WeatherDisplay:10.37,2013-01-26 03:23:00,
2013-01-25 21:28:00,20.5,9.2,30.19,NE,38,7.0,11.5,61,0.00,CLR,,0.00,WeatherDisplay:10.37,2013-01-26 03:28:00,
2013-01-25 21:33:00,20.3,9.0,30.19,NW,305,7.3,9.2,61,0.00,CLR,,0.00,WeatherDisplay:10.37,2013-01-26 03:33:00,
2013-01-25 21:38:00,20.2,8.9,30.19,NW,314,5.8,11.5,61,0.00,CLR,,0.00,WeatherDisplay:10.37,2013-01-26 03:38:00,
2013-01-25 21:44:00,20.0,9.1,30.20,NNW,342,5.4,6.9,62,0.00,CLR,,0.00,WeatherDisplay:10.37,2013-01-26 03:44:00,
2013-01-25 21:49:00,19.8,9.2,30.20,NW,310,6.1,6.9,63,0.00,CLR,,0.00,WeatherDisplay:10.37,2013-01-26 03:49:00,
2013-01-25 21:54:00,19.7,9.1,30.20,North,11,7.0,11.5,63,0.00,CLR,,0.00,WeatherDisplay:10.37,2013-01-26 03:54:00,
2013-01-25 21:59:00,19.7,9.1,30.21,East,82,7.3,9.2,63,0.00,CLR,,0.00,WeatherDisplay:10.37,2013-01-26 03:59:00,
2013-01-25 22:04:00,19.5,8.9,30.21,NNW,329,5.7,8.1,63,0.00,CLR,,0.00,WeatherDisplay:10.37,2013-01-26 04:04:00,
2013-01-25 22:09:00,19.3,9.1,30.22,NNW,330,6.7,10.4,64,0.00,CLR,,0.00,WeatherDisplay:10.37,2013-01-26 04:09:00,
2013-01-25 22:14:00,19.1,9.3,30.22,NW,308,6.1,11.5,65,0.00,CLR,,0.00,WeatherDisplay:10.37,2013-01-26 04:14:00,
2013-01-25 22:19:00,18.9,9.1,30.22,NW,310,4.3,9.2,65,0.00,CLR,,0.00,WeatherDisplay:10.37,2013-01-26 04:19:00,
2013-01-25 22:24:00,18.7,9.2,30.22,NNW,347,5.2,7.0,66,0.00,CLR,,0.00,WeatherDisplay:10.37,2013-01-26 04:24:00,
2013-01-25 22:29:00,18.5,9.0,30.22,NW,304,6.5,9.2,66,0.00,CLR,,0.00,WeatherDisplay:10.37,2013-01-26 04:29:00,
2013-01-25 22:34:00,18.5,9.0,30.22,NNW,330,7.4,10.4,66,0.00,CLR,,0.00,WeatherDisplay:10.37,2013-01-26 04:34:00,
2013-01-25 22:39:00,18.5,9.0,30.23,North,350,5.3,8.1,66,0.00,CLR,,0.00,WeatherDisplay:10.37,2013-01-26 04:39:00,
2013-01-25 22:44:00,18.3,9.2,30.23,WNW,298,6.8,10.4,67,0.00,CLR,,0.00,WeatherDisplay:10.37,2013-01-26 04:44:00,
2013-01-25 22:49:00,18.2,9.1,30.24,NW,311,5.5,10.4,67,0.00,CLR,,0.00,WeatherDisplay:10.37,2013-01-26 04:49:00,
2013-01-25 22:54:00,18.1,9.0,30.24,North,4,5.8,8.0,67,0.00,CLR,,0.00,WeatherDisplay:10.37,2013-01-26 04:54:00,
2013-01-25 22:59:00,17.9,9.1,30.25,NW,322,5.9,7.0,68,0.00,CLR,,0.00,WeatherDisplay:10.37,2013-01-26 04:59:00,
2013-01-25 23:00:00,17.9,9.1,30.25,East,99,5.7,9.2,68,0.00,CLR,,0.00,WeatherDisplay:10.37,2013-01-26 05:00:00,
2013-01-25 23:02:00,17.8,9.0,30.25,NW,316,5.1,10.4,68,0.00,CLR,,0.00,WeatherDisplay:10.37,2013-01-26 05:02:00,
2013-01-25 23:08:00,17.8,9.0,30.25,NW,322,5.5,11.5,68,0.00,CLR,,0.00,WeatherDisplay:10.37,2013-01-26 05:08:00,
2013-01-25 23:13:00,17.5,9.1,30.25,NNE,26,6.6,9.2,69,0.00,CLR,,0.00,WeatherDisplay:10.37,2013-01-26 05:13:00,
2013-01-25 23:18:00,17.4,9.0,30.25,NW,304,5.3,6.9,69,0.00,CLR,,0.00,WeatherDisplay:10.37,2013-01-26 05:18:00,
2013-01-25 23:23:00,17.4,9.0,30.26,North,4,4.4,9.2,69,0.00,CLR,,0.00,WeatherDisplay:10.37,2013-01-26 05:23:00,
2013-01-25 23:28:00,17.3,8.9,30.26,NNE,19,6.0,7.0,69,0.00,CLR,,0.00,WeatherDisplay:10.37,2013-01-26 05:28:00,
2013-01-25 23:33:00,17.2,9.1,30.26,North,8,5.4,8.1,70,0.00,CLR,,0.00,WeatherDisplay:10.37,2013-01-26 05:33:00,
2013-01-25 23:38:00,17.0,8.9,30.27,North,5,5.7,5.8,70,0.00,CLR,,0.00,WeatherDisplay:10.37,2013-01-26 05:38:00,
2013-01-25 23:43:00,17.0,8.9,30.27,NW,322,6.4,9.0,70,0.00,CLR,,0.00,WeatherDisplay:10.37,2013-01-26 05:43:00,
2013-01-25 23:48:00,16.9,8.8,30.27,NW,319,6.2,9.2,70,0.00,CLR,,0.00,WeatherDisplay:10.37,2013-01-26 05:48:00,
2013-01-25 23:53:00,16.8,8.7,30.28,NE,36,6.2,9.2,70,0.00,CLR,,0.00,WeatherDisplay:10.37,2013-01-26 05:53:00,
2013-01-25 23:58:00,16.7,8.6,30.28,NE,53,5.5,10.4,70,0.00,CLR,,0.00,WeatherDisplay:10.37,2013-01-26 05:58:00,